createdAt,value
2023-04-05T00:00:29.389Z,18.20
2023-04-05T00:04:51.871Z,19.60
2023-04-05T00:08:37.734Z,23.10
2023-04-05T00:12:17.488Z,25.10
2023-04-05T00:15:52.528Z,25.50
2023-04-05T00:20:20.510Z,28.40
2023-04-05T00:24:06.182Z,26.40
2023-04-05T00:27:36.665Z,22.30
2023-04-05T00:31:39.118Z,25.90
2023-04-05T00:35:26.629Z,28.80
2023-04-05T00:39:15.549Z,28.90
2023-04-05T00:42:39.620Z,24.10
2023-04-05T00:46:51.639Z,37.90
2023-04-05T00:50:40.674Z,27.00
2023-04-05T00:54:29.723Z,25.50
2023-04-05T00:58:19.043Z,24.20
2023-04-05T01:01:50.346Z,23.40
2023-04-05T01:05:39.231Z,27.60
2023-04-05T01:09:40.337Z,58.80
2023-04-05T01:13:29.273Z,106.40
2023-04-05T01:17:11.774Z,100.40
2023-04-05T01:21:00.668Z,67.10
2023-04-05T01:24:48.067Z,51.40
2023-04-05T01:28:45.976Z,26.40
2023-04-05T01:33:25.427Z,20.40
2023-04-05T01:37:57.129Z,19.80
2023-04-05T01:42:25.946Z,19.60
2023-04-05T01:46:55.396Z,20.20
2023-04-05T01:51:24.199Z,20.20
2023-04-05T01:55:53.007Z,21.00
2023-04-05T02:00:21.829Z,19.70
2023-04-05T02:04:50.680Z,22.50
2023-04-05T02:09:03.418Z,21.70
2023-04-05T02:13:32.004Z,30.10
2023-04-05T02:18:00.777Z,50.20
2023-04-05T02:22:09.856Z,35.50
2023-04-05T02:26:19.711Z,35.20
2023-04-05T02:30:10.881Z,33.60
2023-04-05T02:34:00.666Z,32.10
2023-04-05T02:38:09.587Z,24.30
2023-04-05T02:42:06.527Z,21.80
2023-04-05T02:46:43.333Z,20.10
2023-04-05T02:49:55.521Z,24.90
2023-04-05T02:53:21.458Z,21.70
2023-04-05T02:56:53.250Z,20.70
2023-04-05T03:00:25.984Z,16.80
2023-04-05T03:03:42.216Z,17.80
2023-04-05T03:07:29.688Z,17.50
2023-04-05T03:10:59.949Z,17.40
2023-04-05T03:14:46.370Z,17.00
2023-04-05T03:18:15.382Z,16.80
2023-04-05T03:21:55.480Z,17.70
2023-04-05T03:25:43.206Z,15.80
2023-04-05T03:29:02.298Z,15.20
2023-04-05T03:32:48.798Z,14.40
2023-04-05T03:36:26.905Z,13.80
2023-04-05T03:39:42.130Z,14.40
2023-04-05T03:43:28.288Z,14.20
2023-04-05T03:47:03.268Z,12.90
2023-04-05T03:50:40.428Z,14.00
2023-04-05T03:54:17.742Z,13.70
2023-04-05T03:57:27.587Z,14.00
2023-04-05T04:00:57.666Z,13.60
2023-04-05T04:04:37.867Z,14.20
2023-04-05T04:08:05.419Z,14.40
2023-04-05T04:11:45.923Z,14.90
2023-04-05T04:15:01.069Z,13.80
2023-04-05T04:18:41.232Z,13.30
2023-04-05T04:22:08.565Z,14.90
2023-04-05T04:25:47.136Z,13.70
2023-04-05T04:29:43.769Z,13.20
2023-04-05T04:33:13.881Z,12.90
2023-04-05T04:36:24.132Z,14.50
2023-04-05T04:39:51.319Z,13.80
2023-04-05T04:42:49.936Z,14.70
2023-04-05T04:46:21.604Z,14.20
2023-04-05T04:49:43.493Z,15.10
2023-04-05T04:52:55.519Z,15.50
2023-04-05T04:56:17.748Z,16.20
2023-04-05T04:59:31.805Z,17.00
2023-04-05T05:02:50.641Z,16.90
2023-04-05T05:06:33.242Z,16.80
2023-04-05T05:09:37.148Z,23.70
2023-04-05T05:13:06.979Z,21.50
2023-04-05T05:16:35.355Z,33.30
2023-04-05T05:19:58.611Z,16.30
2023-04-05T05:23:08.250Z,11.10
2023-04-05T05:26:43.646Z,11.20
2023-04-05T05:29:46.328Z,11.20
2023-04-05T05:33:28.463Z,11.70
2023-04-05T05:37:16.926Z,11.40
2023-04-05T05:40:41.209Z,11.40
2023-04-05T05:44:12.870Z,11.70
2023-04-05T05:47:33.692Z,11.80
2023-04-05T05:51:14.762Z,11.00
2023-04-05T05:54:36.420Z,10.70
2023-04-05T05:58:23.007Z,11.40
2023-04-05T06:01:52.039Z,10.90
2023-04-05T06:05:36.237Z,9.90
2023-04-05T06:08:45.704Z,9.10
2023-04-05T06:12:04.013Z,8.10
2023-04-05T06:15:51.535Z,6.70
2023-04-05T06:18:57.156Z,7.80
2023-04-05T06:22:30.513Z,8.20
2023-04-05T06:26:07.328Z,7.30
2023-04-05T06:29:47.042Z,7.20
2023-04-05T06:33:17.844Z,8.00
2023-04-05T06:36:51.544Z,7.60
2023-04-05T06:40:14.600Z,7.10
2023-04-05T06:43:54.897Z,7.20
2023-04-05T06:47:45.203Z,6.30
2023-04-05T06:51:41.440Z,4.20
2023-04-05T06:55:11.695Z,5.70
2023-04-05T06:58:59.519Z,6.80
2023-04-05T07:02:47.163Z,6.50
2023-04-05T07:06:27.881Z,7.00
2023-04-05T07:10:16.030Z,5.00
2023-04-05T07:14:03.766Z,5.70
2023-04-05T07:17:33.343Z,6.30
2023-04-05T07:21:19.616Z,6.50
2023-04-05T07:25:05.874Z,6.20
2023-04-05T07:28:36.487Z,6.30
2023-04-05T07:32:17.270Z,6.10
2023-04-05T07:35:56.190Z,6.40
2023-04-05T07:39:37.149Z,5.30
2023-04-05T07:43:24.830Z,5.80
2023-04-05T07:47:05.520Z,5.60
2023-04-05T07:50:53.364Z,6.10
2023-04-05T07:54:41.492Z,5.10
2023-04-05T07:58:50.785Z,4.90
2023-04-05T08:03:20.728Z,6.30
2023-04-05T08:07:50.518Z,5.50
2023-04-05T08:12:23.178Z,6.60
2023-04-05T08:16:54.531Z,6.40
2023-04-05T08:21:24.202Z,5.60
2023-04-05T08:25:54.534Z,5.80
2023-04-05T08:30:27.876Z,6.80
2023-04-05T08:34:58.774Z,5.90
2023-04-05T08:39:30.814Z,6.20
2023-04-05T08:44:04.925Z,5.70
2023-04-05T08:48:38.276Z,4.20
2023-04-05T08:53:06.151Z,5.30
2023-04-05T08:57:37.397Z,5.80
2023-04-05T09:02:07.460Z,5.50
2023-04-05T09:06:36.897Z,5.90
2023-04-05T09:11:06.771Z,6.60
2023-04-05T09:15:36.650Z,5.90
2023-04-05T09:20:07.341Z,6.10
2023-04-05T09:24:37.114Z,5.60
2023-04-05T09:29:21.924Z,4.70
2023-04-05T09:33:53.868Z,4.70
2023-04-05T09:38:23.252Z,5.00
2023-04-05T09:43:04.887Z,5.10
2023-04-05T09:53:25.278Z,4.00
2023-04-05T09:57:14.640Z,4.90
2023-04-05T10:01:16.259Z,4.90
2023-04-05T10:04:41.618Z,4.90
2023-04-05T10:08:24.489Z,6.30
2023-04-05T10:11:53.232Z,6.40
2023-04-05T10:15:03.027Z,7.00
2023-04-05T10:18:53.493Z,7.60
2023-04-05T10:22:32.800Z,7.20
2023-04-05T10:26:21.312Z,6.40
2023-04-05T10:30:11.082Z,6.00
2023-04-05T10:34:09.031Z,5.60
2023-04-05T10:38:01.606Z,5.30
2023-04-05T10:41:50.567Z,5.20
2023-04-05T10:45:40.175Z,5.60
2023-04-05T10:49:32.298Z,5.30
2023-04-05T10:53:08.321Z,5.60
2023-04-05T10:56:33.046Z,5.10
2023-04-05T11:00:21.197Z,5.50
2023-04-05T11:04:22.196Z,5.40
2023-04-05T11:08:23.175Z,5.20
2023-04-05T11:12:11.571Z,5.70
2023-04-05T11:16:08.152Z,5.10
2023-04-05T11:19:31.578Z,4.40
2023-04-05T11:22:29.799Z,5.10
2023-04-05T11:25:41.766Z,5.20
2023-04-05T11:28:50.626Z,4.90
2023-04-05T11:32:38.461Z,4.90
2023-04-05T11:36:20.088Z,5.90
2023-04-05T11:40:16.045Z,6.20
2023-04-05T11:44:04.296Z,5.90
2023-04-05T11:47:53.965Z,7.30
2023-04-05T11:51:29.247Z,7.60
2023-04-05T11:55:33.678Z,2.70
2023-04-05T11:59:21.808Z,6.40
2023-04-05T12:03:11.158Z,7.70
2023-04-05T12:06:48.552Z,7.60
2023-04-05T12:10:40.580Z,7.20
2023-04-05T12:14:29.768Z,7.20
2023-04-05T12:18:19.077Z,7.70
2023-04-05T12:22:08.239Z,7.80
2023-04-05T12:25:57.429Z,8.10
2023-04-05T12:29:52.732Z,8.10
2023-04-05T12:33:42.099Z,7.80
2023-04-05T12:37:32.573Z,8.20
2023-04-05T12:41:14.761Z,8.00
2023-04-05T12:44:58.250Z,6.70
2023-04-05T12:48:50.340Z,7.70
2023-04-05T12:52:38.274Z,7.50
2023-04-05T12:56:30.203Z,6.30
2023-04-05T13:00:18.226Z,7.90
2023-04-05T13:04:15.290Z,8.30
2023-04-05T13:07:54.159Z,9.20
2023-04-05T13:11:29.727Z,8.70
2023-04-05T13:15:19.430Z,9.40
2023-04-05T13:19:09.044Z,8.20
2023-04-05T13:22:58.404Z,7.50
2023-04-05T13:26:47.794Z,6.80
2023-04-05T13:30:37.167Z,9.20
2023-04-05T13:34:25.081Z,5.80
2023-04-05T13:38:14.439Z,8.70
2023-04-05T13:42:03.740Z,7.40
2023-04-05T13:45:37.805Z,9.40
2023-04-05T13:49:27.787Z,8.90
2023-04-05T13:53:16.124Z,8.50
2023-04-05T13:57:05.150Z,9.10
2023-04-05T14:00:54.624Z,9.40
2023-04-05T14:04:43.374Z,9.50
2023-04-05T14:08:25.343Z,9.10
2023-04-05T14:11:39.924Z,9.30
2023-04-05T14:14:43.129Z,8.20
2023-04-05T14:17:28.297Z,7.70
2023-04-05T14:20:28.415Z,9.70
2023-04-05T14:23:53.346Z,9.70
2023-04-05T14:27:25.367Z,9.90
2023-04-05T14:31:14.572Z,7.90
2023-04-05T14:34:56.240Z,8.50
2023-04-05T14:38:47.589Z,7.30
2023-04-05T14:42:40.987Z,8.00
2023-04-05T14:46:00.528Z,9.00
2023-04-05T14:49:08.328Z,7.70
2023-04-05T14:52:54.837Z,7.70
2023-04-05T14:56:43.675Z,8.60
2023-04-05T14:59:33.807Z,7.40
2023-04-05T15:03:18.606Z,8.80
2023-04-05T15:06:58.336Z,9.20
2023-04-05T15:10:33.180Z,7.20
2023-04-05T15:14:31.218Z,5.70
2023-04-05T15:18:07.613Z,6.60
2023-04-05T15:21:49.147Z,6.80
2023-04-05T15:26:25.716Z,7.60
2023-04-05T15:29:47.180Z,4.20
2023-04-05T15:33:09.280Z,7.50
2023-04-05T15:36:43.705Z,7.00
2023-04-05T15:40:31.302Z,12.50
2023-04-05T15:44:15.425Z,6.70
2023-04-05T15:47:56.218Z,7.10
2023-04-05T15:51:46.003Z,8.00
2023-04-05T15:55:27.850Z,7.90
2023-04-05T15:59:09.806Z,9.20
2023-04-05T16:02:46.740Z,8.00
2023-04-05T16:06:23.824Z,5.60
2023-04-05T16:10:06.540Z,6.90
2023-04-05T16:13:17.358Z,5.80
2023-04-05T16:17:06.793Z,3.70
2023-04-05T16:20:56.392Z,7.10
2023-04-05T16:24:28.622Z,4.10
2023-04-05T16:28:19.106Z,5.10
2023-04-05T16:32:01.426Z,7.20
2023-04-05T16:35:34.240Z,6.70
2023-04-05T16:39:17.735Z,6.50
2023-04-05T16:42:49.729Z,7.60
2023-04-05T16:46:34.397Z,9.60
2023-04-05T16:50:24.609Z,11.00
2023-04-05T16:54:14.363Z,12.80
2023-04-05T16:58:03.819Z,13.50
2023-04-05T17:01:38.080Z,12.30
2023-04-05T17:05:27.987Z,10.80
2023-04-05T17:09:17.552Z,10.50
2023-04-05T17:12:52.539Z,11.40
2023-04-05T17:16:37.789Z,13.80
2023-04-05T17:20:20.937Z,17.40
2023-04-05T17:24:09.210Z,21.70
2023-04-05T17:27:58.633Z,23.30
2023-04-05T17:31:31.899Z,26.70
2023-04-05T17:35:03.583Z,26.70
2023-04-05T17:38:39.319Z,28.40
2023-04-05T17:42:11.629Z,26.60
2023-04-05T17:46:01.052Z,24.60
2023-04-05T17:49:51.352Z,31.60
2023-04-05T17:53:42.009Z,40.00
2023-04-05T17:57:30.530Z,26.50
2023-04-05T18:01:10.750Z,32.50
2023-04-05T18:04:44.917Z,38.80
2023-04-05T18:08:30.565Z,26.10
2023-04-05T18:12:21.405Z,26.20
2023-04-05T18:15:54.834Z,46.30
2023-04-05T18:19:26.651Z,42.90
2023-04-05T18:23:02.321Z,24.80
2023-04-05T18:26:03.859Z,24.30
2023-04-05T18:29:00.635Z,26.30
2023-04-05T18:31:43.894Z,26.00
2023-04-05T18:34:22.162Z,25.80
2023-04-05T18:37:01.879Z,25.60
2023-04-05T18:40:02.508Z,23.40
2023-04-05T18:43:04.084Z,24.90
2023-04-05T18:45:39.662Z,49.70
2023-04-05T18:48:28.050Z,58.00
2023-04-05T18:51:33.196Z,41.00
2023-04-05T18:54:05.607Z,35.50
2023-04-05T18:56:42.141Z,33.70
2023-04-05T18:59:34.294Z,36.90
2023-04-05T19:02:43.131Z,32.10
2023-04-05T19:05:18.076Z,32.50
2023-04-05T19:07:58.323Z,35.20
2023-04-05T19:10:35.382Z,33.80
2023-04-05T19:13:17.291Z,33.80
2023-04-05T19:16:17.958Z,31.20
2023-04-05T19:19:18.043Z,31.50
2023-04-05T19:22:37.032Z,30.80
2023-04-05T19:26:09.339Z,34.80
2023-04-05T19:29:08.755Z,37.20
2023-04-05T19:32:07.072Z,40.10
2023-04-05T19:34:39.249Z,52.10
2023-04-05T19:37:13.767Z,50.90
2023-04-05T19:40:15.790Z,53.80
2023-04-05T19:43:54.430Z,59.40
2023-04-05T19:47:44.015Z,70.20
2023-04-05T19:51:39.343Z,63.20
2023-04-05T19:55:19.812Z,53.50
2023-04-05T19:58:43.604Z,46.80
2023-04-05T20:02:11.503Z,33.40
2023-04-05T20:05:54.492Z,30.30
2023-04-05T20:09:26.488Z,32.80
2023-04-05T20:13:01.334Z,47.30
2023-04-05T20:16:33.050Z,37.10
2023-04-05T20:20:17.843Z,26.70
2023-04-05T20:24:07.592Z,31.20
2023-04-05T20:27:44.909Z,35.50
2023-04-05T20:31:24.640Z,31.40
2023-04-05T20:35:02.569Z,28.20
2023-04-05T20:38:45.333Z,31.20
2023-04-05T20:42:17.596Z,32.00
2023-04-05T20:45:59.850Z,29.40
2023-04-05T20:49:47.824Z,30.40
2023-04-05T20:53:27.047Z,32.80
2023-04-05T20:57:15.510Z,38.50
2023-04-05T21:01:05.174Z,42.10
2023-04-05T21:04:52.962Z,43.80
2023-04-05T21:08:42.834Z,55.00
2023-04-05T21:12:15.257Z,69.00
2023-04-05T21:15:55.406Z,68.60
2023-04-05T21:19:01.917Z,60.40
2023-04-05T21:22:44.176Z,56.90
2023-04-05T21:26:18.572Z,62.80
2023-04-05T21:30:06.626Z,56.50
2023-04-05T21:33:29.096Z,57.10
2023-04-05T21:36:59.372Z,57.10
2023-04-05T21:40:48.393Z,53.80
2023-04-05T21:44:37.384Z,48.30
2023-04-05T21:47:58.310Z,51.50
2023-04-05T21:51:13.427Z,67.60
2023-04-05T21:54:54.538Z,142.20
2023-04-05T21:58:33.230Z,114.60
2023-04-05T22:02:06.079Z,73.30
2023-04-05T22:05:40.216Z,70.50
2023-04-05T22:09:29.109Z,46.40
2023-04-05T22:13:18.133Z,46.90
2023-04-05T22:16:59.798Z,44.30
2023-04-05T22:20:41.309Z,52.80
2023-04-05T22:24:30.246Z,65.30
2023-04-05T22:27:59.023Z,91.10
2023-04-05T22:31:48.208Z,96.10
2023-04-05T22:35:27.087Z,86.60
2023-04-05T22:38:47.125Z,62.10
2023-04-05T22:42:10.174Z,62.30
2023-04-05T22:45:51.836Z,55.30
2023-04-05T22:49:40.722Z,55.30
2023-04-05T22:53:14.690Z,45.90
2023-04-05T22:57:03.606Z,35.80
2023-04-05T23:00:51.863Z,27.40
2023-04-05T23:04:40.694Z,23.00
2023-04-05T23:08:13.307Z,24.30
2023-04-05T23:12:02.849Z,26.70
2023-04-05T23:15:48.849Z,26.50
2023-04-05T23:18:55.993Z,32.80
2023-04-05T23:22:44.865Z,28.20
2023-04-05T23:25:53.572Z,28.00
2023-04-05T23:29:17.321Z,28.10
2023-04-05T23:32:30.285Z,26.10
2023-04-05T23:35:45.824Z,25.10
2023-04-05T23:38:59.949Z,23.90
2023-04-05T23:42:05.684Z,26.40
2023-04-05T23:45:32.655Z,26.70
2023-04-05T23:48:29.494Z,27.10
2023-04-05T23:51:28.497Z,27.00
2023-04-05T23:54:40.590Z,23.60
2023-04-05T23:57:35.638Z,24.40
